createdAt,value
2022-10-01T00:02:00.119Z,3.90
2022-10-01T00:04:27.980Z,3.50
2022-10-01T00:06:59.119Z,4.63
2022-10-01T00:09:26.762Z,4.10
2022-10-01T00:11:56.113Z,3.37
2022-10-01T00:14:23.556Z,4.73
2022-10-01T00:16:51.065Z,3.77
2022-10-01T00:19:18.538Z,3.70
2022-10-01T00:21:46.050Z,3.60
2022-10-01T00:24:14.335Z,4.03
2022-10-01T00:26:42.919Z,4.03
2022-10-01T00:29:14.277Z,4.47
2022-10-01T00:31:42.257Z,3.83
2022-10-01T00:34:13.010Z,3.87
2022-10-01T00:36:40.986Z,3.80
2022-10-01T00:39:08.765Z,3.40
2022-10-01T00:41:36.488Z,3.80
2022-10-01T00:44:33.272Z,4.67
2022-10-01T00:47:07.126Z,4.60
2022-10-01T00:49:38.698Z,5.40
2022-10-01T00:52:09.894Z,4.10
2022-10-01T00:54:42.653Z,5.40
2022-10-01T00:57:10.143Z,3.57
2022-10-01T00:59:38.963Z,3.87
2022-10-01T01:02:06.465Z,4.30
2022-10-01T01:04:34.202Z,3.90
2022-10-01T01:07:05.233Z,3.57
2022-10-01T01:09:36.870Z,4.73
2022-10-01T01:12:12.900Z,3.90
2022-10-01T01:14:50.557Z,5.03
2022-10-01T01:17:25.628Z,6.40
2022-10-01T01:20:12.988Z,4.10
2022-10-01T01:22:48.547Z,4.63
2022-10-01T01:25:19.937Z,4.60
2022-10-01T01:27:54.649Z,5.03
2022-10-01T01:30:23.674Z,4.50
2022-10-01T01:33:03.212Z,4.03
2022-10-01T01:35:35.961Z,4.37
2022-10-01T01:38:08.355Z,4.23
2022-10-01T01:40:39.467Z,5.23
2022-10-01T01:43:11.891Z,4.70
2022-10-01T01:45:42.180Z,3.60
2022-10-01T01:48:13.130Z,3.77
2022-10-01T01:50:46.262Z,3.77
2022-10-01T01:53:15.125Z,4.30
2022-10-01T01:55:44.213Z,3.40
2022-10-01T01:58:11.887Z,3.70
2022-10-01T02:00:41.237Z,3.87
2022-10-01T02:03:09.115Z,3.67
2022-10-01T02:05:43.620Z,4.17
2022-10-01T02:08:36.871Z,3.40
2022-10-01T02:11:19.900Z,3.90
2022-10-01T02:13:56.255Z,3.60
2022-10-01T02:16:31.692Z,5.13
2022-10-01T02:19:03.758Z,4.23
2022-10-01T02:21:36.182Z,3.67
2022-10-01T02:24:10.081Z,3.60
2022-10-01T02:26:40.221Z,3.50
2022-10-01T02:29:11.237Z,4.47
2022-10-01T02:31:42.153Z,4.03
2022-10-01T02:34:12.825Z,4.57
2022-10-01T02:36:42.294Z,4.57
2022-10-01T02:39:11.402Z,3.73
2022-10-01T02:41:38.923Z,5.30
2022-10-01T02:44:10.808Z,3.63
2022-10-01T02:46:45.866Z,4.40
2022-10-01T02:49:14.488Z,4.20
2022-10-01T02:51:50.978Z,5.10
2022-10-01T02:54:25.317Z,5.17
2022-10-01T02:57:10.551Z,4.93
2022-10-01T02:59:38.022Z,5.03
2022-10-01T03:02:07.142Z,4.77
2022-10-01T03:04:34.692Z,4.83
2022-10-01T03:07:04.259Z,5.57
2022-10-01T03:09:32.149Z,5.77
2022-10-01T03:12:00.307Z,4.90
2022-10-01T03:14:27.928Z,5.50
2022-10-01T03:16:55.681Z,5.87
2022-10-01T03:19:24.596Z,5.37
2022-10-01T03:21:52.048Z,4.97
2022-10-01T03:24:19.483Z,5.17
2022-10-01T03:26:47.007Z,5.37
2022-10-01T03:29:15.068Z,4.97
2022-10-01T03:31:42.604Z,5.53
2022-10-01T03:34:10.159Z,5.07
2022-10-01T03:36:39.216Z,5.93
2022-10-01T03:39:06.712Z,5.30
2022-10-01T03:41:34.521Z,5.10
2022-10-01T03:44:02.379Z,5.47
2022-10-01T03:46:30.581Z,5.50
2022-10-01T03:49:00.834Z,7.70
2022-10-01T03:51:28.479Z,5.43
2022-10-01T03:53:57.873Z,6.10
2022-10-01T03:56:25.751Z,5.23
2022-10-01T03:58:53.213Z,5.97
2022-10-01T04:01:20.897Z,5.37
2022-10-01T04:03:49.093Z,5.50
2022-10-01T04:06:17.319Z,5.03
2022-10-01T04:08:45.354Z,5.37
2022-10-01T04:11:14.194Z,5.20
2022-10-01T04:13:41.643Z,5.10
2022-10-01T04:16:09.657Z,5.03
2022-10-01T04:18:37.308Z,4.97
2022-10-01T04:21:04.875Z,4.70
2022-10-01T04:23:32.446Z,4.47
2022-10-01T04:26:02.261Z,4.83
2022-10-01T04:28:31.769Z,4.70
2022-10-01T04:31:13.631Z,4.70
2022-10-01T04:33:41.260Z,4.37
2022-10-01T04:36:08.934Z,4.53
2022-10-01T04:38:36.394Z,4.83
2022-10-01T04:41:03.938Z,4.80
2022-10-01T04:43:32.695Z,4.90
2022-10-01T04:46:00.236Z,5.57
2022-10-01T04:48:27.737Z,5.00
2022-10-01T04:50:55.207Z,5.43
2022-10-01T04:53:22.683Z,5.30
2022-10-01T04:55:50.433Z,6.13
2022-10-01T04:58:18.600Z,8.00
2022-10-01T05:00:47.467Z,6.03
2022-10-01T05:03:14.955Z,5.73
2022-10-01T05:05:43.659Z,5.63
2022-10-01T05:08:11.090Z,6.47
2022-10-01T05:10:38.630Z,5.63
2022-10-01T05:13:06.356Z,5.23
2022-10-01T05:15:35.604Z,5.77
2022-10-01T05:18:04.543Z,5.47
2022-10-01T05:20:33.884Z,6.30
2022-10-01T05:23:01.380Z,5.43
2022-10-01T05:25:28.948Z,4.67
2022-10-01T05:28:05.673Z,5.30
2022-10-01T05:30:34.218Z,4.87
2022-10-01T05:33:04.945Z,4.40
2022-10-01T05:35:32.888Z,4.40
2022-10-01T05:38:02.585Z,4.30
2022-10-01T05:40:31.050Z,4.60
2022-10-01T05:42:59.682Z,4.30
2022-10-01T05:45:28.535Z,4.70
2022-10-01T05:48:00.959Z,4.20
2022-10-01T05:50:32.041Z,3.80
2022-10-01T05:53:00.129Z,4.20
2022-10-01T05:55:31.713Z,4.20
2022-10-01T05:58:01.169Z,4.13
2022-10-01T06:00:29.680Z,3.90
2022-10-01T06:02:58.102Z,4.37
2022-10-01T06:05:26.998Z,3.77
2022-10-01T06:07:56.396Z,3.83
2022-10-01T06:10:24.715Z,3.57
2022-10-01T06:12:52.940Z,3.60
2022-10-01T06:15:20.379Z,3.50
2022-10-01T06:17:47.832Z,5.17
2022-10-01T06:20:17.196Z,3.80
2022-10-01T06:22:45.550Z,3.53
2022-10-01T06:25:15.606Z,3.27
2022-10-01T06:27:43.173Z,5.17
2022-10-01T06:30:11.805Z,3.57
2022-10-01T06:32:39.390Z,3.43
2022-10-01T06:35:07.629Z,3.60
2022-10-01T06:37:37.780Z,4.00
2022-10-01T06:40:06.177Z,3.70
2022-10-01T06:42:34.952Z,3.93
2022-10-01T06:45:02.515Z,4.17
2022-10-01T06:47:30.022Z,3.57
2022-10-01T06:49:59.325Z,3.57
2022-10-01T06:52:44.527Z,3.80
2022-10-01T06:55:16.315Z,3.43
2022-10-01T06:57:45.691Z,3.43
2022-10-01T07:00:14.449Z,3.33
2022-10-01T07:02:42.299Z,3.20
2022-10-01T07:05:09.870Z,3.47
2022-10-01T07:07:38.896Z,3.00
2022-10-01T07:10:09.016Z,3.67
2022-10-01T07:12:37.521Z,3.40
2022-10-01T07:15:07.014Z,3.30
2022-10-01T07:17:35.122Z,3.20
2022-10-01T07:20:03.046Z,3.30
2022-10-01T07:22:30.492Z,3.00
2022-10-01T07:24:58.052Z,2.97
2022-10-01T07:27:25.510Z,2.90
2022-10-01T07:29:53.183Z,4.03
2022-10-01T07:32:21.975Z,4.77
2022-10-01T07:34:49.408Z,3.87
2022-10-01T07:37:16.873Z,3.57
2022-10-01T07:39:44.602Z,2.93
2022-10-01T07:42:12.023Z,3.60
2022-10-01T07:44:39.505Z,2.90
2022-10-01T07:47:06.949Z,2.90
2022-10-01T07:49:35.791Z,3.10
2022-10-01T07:52:03.317Z,2.70
2022-10-01T07:54:30.794Z,3.67
2022-10-01T07:56:59.182Z,2.70
2022-10-01T07:59:28.136Z,2.70
2022-10-01T08:01:55.666Z,2.50
2022-10-01T08:04:41.390Z,2.37
2022-10-01T08:07:10.234Z,2.80
2022-10-01T08:09:39.803Z,2.70
2022-10-01T08:12:07.256Z,2.60
2022-10-01T08:14:35.361Z,3.00
2022-10-01T08:17:02.846Z,2.30
2022-10-01T08:19:30.277Z,2.53
2022-10-01T08:21:57.717Z,2.50
2022-10-01T08:24:26.871Z,2.60
2022-10-01T08:26:56.025Z,2.70
2022-10-01T08:29:23.538Z,2.90
2022-10-01T08:31:51.021Z,2.53
2022-10-01T08:34:18.591Z,2.33
2022-10-01T08:36:46.627Z,2.40
2022-10-01T08:39:14.755Z,1.93
2022-10-01T08:41:54.546Z,2.47
2022-10-01T08:44:27.735Z,3.20
2022-10-01T08:47:00.141Z,2.30
2022-10-01T08:49:31.740Z,3.37
2022-10-01T08:52:04.137Z,2.60
2022-10-01T08:54:35.884Z,3.13
2022-10-01T08:57:10.526Z,2.30
2022-10-01T08:59:41.593Z,3.03
2022-10-01T09:02:21.172Z,2.37
2022-10-01T09:04:51.198Z,2.20
2022-10-01T09:07:34.106Z,2.70
2022-10-01T09:10:13.027Z,2.03
2022-10-01T09:12:49.072Z,2.27
2022-10-01T09:15:22.640Z,2.60
2022-10-01T09:18:03.020Z,2.63
2022-10-01T09:20:36.216Z,2.03
2022-10-01T09:23:18.790Z,2.13
2022-10-01T09:25:50.247Z,1.73
2022-10-01T09:28:22.504Z,2.73
2022-10-01T09:30:56.743Z,1.70
2022-10-01T09:33:29.585Z,1.60
2022-10-01T09:36:05.695Z,2.03
2022-10-01T09:38:37.485Z,1.67
2022-10-01T09:41:05.114Z,1.53
2022-10-01T09:43:35.952Z,1.73
2022-10-01T09:46:06.705Z,1.80
2022-10-01T09:48:39.886Z,2.07
2022-10-01T09:51:13.182Z,1.70
2022-10-01T09:53:46.123Z,2.23
2022-10-01T09:56:21.861Z,1.60
2022-10-01T09:58:55.277Z,1.67
2022-10-01T10:01:39.101Z,1.60
2022-10-01T10:04:06.657Z,1.30
2022-10-01T10:06:34.438Z,1.23
2022-10-01T10:09:03.005Z,1.40
2022-10-01T10:11:32.753Z,1.90
2022-10-01T10:14:03.503Z,1.20
2022-10-01T10:16:35.170Z,0.90
2022-10-01T10:19:10.129Z,1.60
2022-10-01T10:21:38.314Z,1.10
2022-10-01T10:24:20.265Z,1.00
2022-10-01T10:26:55.627Z,1.20
2022-10-01T10:29:30.402Z,1.43
2022-10-01T10:31:58.587Z,1.40
2022-10-01T10:34:33.582Z,2.00
2022-10-01T10:37:05.938Z,1.20
2022-10-01T10:39:37.390Z,1.20
2022-10-01T10:42:07.055Z,1.30
2022-10-01T10:44:40.103Z,1.27
2022-10-01T10:47:10.962Z,1.43
2022-10-01T10:49:45.931Z,1.40
2022-10-01T10:52:20.586Z,1.20
2022-10-01T10:54:49.803Z,1.80
2022-10-01T10:57:21.761Z,1.30
2022-10-01T11:00:01.961Z,1.37
2022-10-01T11:02:31.628Z,1.47
2022-10-01T11:05:03.487Z,2.17
2022-10-01T11:07:32.171Z,1.30
2022-10-01T11:10:16.245Z,1.40
2022-10-01T11:12:58.312Z,1.33
2022-10-01T11:15:43.237Z,1.30
2022-10-01T11:18:29.827Z,1.30
2022-10-01T11:21:14.333Z,1.20
2022-10-01T11:24:05.279Z,1.30
2022-10-01T11:26:41.449Z,1.27
2022-10-01T11:29:23.302Z,1.43
2022-10-01T11:32:02.251Z,1.20
2022-10-01T11:34:54.568Z,2.03
2022-10-01T11:37:36.536Z,1.47
2022-10-01T11:40:19.692Z,1.30
2022-10-01T11:42:50.976Z,1.37
2022-10-01T11:45:22.269Z,1.33
2022-10-01T11:47:54.662Z,1.00
2022-10-01T11:50:26.223Z,1.27
2022-10-01T11:52:58.456Z,1.20
2022-10-01T11:55:46.376Z,1.50
2022-10-01T11:58:37.594Z,1.13
2022-10-01T12:01:11.604Z,1.30
2022-10-01T12:03:51.080Z,2.37
2022-10-01T12:06:25.572Z,1.20
2022-10-01T12:09:00.472Z,1.40
2022-10-01T12:11:36.030Z,3.40
2022-10-01T12:14:10.379Z,1.27
2022-10-01T12:16:44.848Z,1.92
2022-10-01T12:19:21.458Z,1.23
2022-10-01T12:21:52.948Z,1.85
2022-10-01T12:24:23.580Z,1.00
2022-10-01T12:27:00.477Z,1.48
2022-10-01T12:29:36.452Z,1.20
2022-10-01T12:32:13.679Z,1.08
2022-10-01T12:34:54.322Z,0.93
2022-10-01T12:37:33.177Z,1.42
2022-10-01T12:40:17.502Z,1.17
2022-10-01T12:43:04.388Z,1.20
2022-10-01T12:45:46.056Z,1.10
2022-10-01T12:48:21.346Z,0.77
2022-10-01T12:51:14.456Z,1.10
2022-10-01T12:53:51.271Z,0.90
2022-10-01T12:56:30.652Z,1.17
2022-10-01T12:59:12.720Z,1.08
2022-10-01T13:01:59.713Z,1.52
2022-10-01T13:04:42.835Z,1.52
2022-10-01T13:07:48.359Z,1.50
2022-10-01T13:10:27.534Z,2.67
2022-10-01T13:13:02.902Z,1.27
2022-10-01T13:15:34.971Z,0.97
2022-10-01T13:18:10.667Z,2.00
2022-10-01T13:20:42.039Z,1.00
2022-10-01T13:23:18.835Z,1.10
2022-10-01T13:25:59.167Z,0.90
2022-10-01T13:28:35.909Z,1.00
2022-10-01T13:31:14.649Z,0.90
2022-10-01T13:33:42.866Z,1.00
2022-10-01T13:36:13.215Z,1.50
2022-10-01T13:38:43.857Z,0.93
2022-10-01T13:41:21.421Z,0.90
2022-10-01T13:43:56.922Z,1.05
2022-10-01T13:46:27.319Z,1.77
2022-10-01T13:48:56.151Z,1.33
2022-10-01T13:51:35.184Z,1.80
2022-10-01T13:54:07.637Z,1.25
2022-10-01T13:56:37.511Z,0.90
2022-10-01T13:59:06.150Z,2.88
2022-10-01T14:01:40.932Z,1.05
2022-10-01T14:04:20.330Z,1.10
2022-10-01T14:06:53.691Z,2.25
2022-10-01T14:09:25.535Z,1.58
2022-10-01T14:12:14.604Z,1.15
2022-10-01T14:15:07.288Z,1.38
2022-10-01T14:17:36.384Z,1.03
2022-10-01T14:20:04.878Z,0.93
2022-10-01T14:22:49.393Z,1.20
2022-10-01T14:25:30.491Z,1.70
2022-10-01T14:28:16.937Z,1.50
2022-10-01T14:30:54.184Z,1.40
2022-10-01T14:33:58.430Z,1.50
2022-10-01T14:36:32.345Z,1.73
2022-10-01T14:39:14.966Z,1.20
2022-10-01T14:41:44.636Z,1.20
2022-10-01T14:44:24.977Z,1.00
2022-10-01T14:46:53.724Z,1.00
2022-10-01T14:49:24.355Z,1.13
2022-10-01T14:51:55.600Z,1.57
2022-10-01T14:54:24.382Z,1.13
2022-10-01T14:56:54.306Z,1.20
2022-10-01T14:59:30.915Z,1.10
2022-10-01T15:02:00.323Z,1.40
2022-10-01T15:04:27.872Z,1.33
2022-10-01T15:06:55.560Z,2.33
2022-10-01T15:09:23.206Z,2.23
2022-10-01T15:11:53.209Z,1.60
2022-10-01T15:14:24.513Z,1.30
2022-10-01T15:16:52.231Z,2.10
2022-10-01T15:19:23.366Z,1.53
2022-10-01T15:21:53.374Z,1.37
2022-10-01T15:24:25.826Z,1.57
2022-10-01T15:26:57.615Z,1.10
2022-10-01T15:29:25.457Z,1.27
2022-10-01T15:31:54.713Z,1.03
2022-10-01T15:34:25.335Z,1.70
2022-10-01T15:36:53.597Z,0.90
2022-10-01T15:39:32.741Z,1.13
2022-10-01T15:42:06.988Z,1.27
2022-10-01T15:44:45.485Z,1.43
2022-10-01T15:47:29.226Z,3.07
2022-10-01T15:50:02.934Z,1.53
2022-10-01T15:52:49.390Z,1.50
2022-10-01T15:55:18.668Z,1.90
2022-10-01T15:57:47.604Z,1.43
2022-10-01T16:00:22.873Z,1.63
2022-10-01T16:02:50.898Z,1.77
2022-10-01T16:05:22.323Z,1.50
2022-10-01T16:07:56.063Z,2.40
2022-10-01T16:10:31.865Z,2.00
2022-10-01T16:13:01.020Z,2.10
2022-10-01T16:15:30.779Z,2.00
2022-10-01T16:17:59.276Z,2.80
2022-10-01T16:20:44.753Z,2.57
2022-10-01T16:23:42.744Z,3.50
2022-10-01T16:26:40.535Z,3.27
2022-10-01T16:29:22.530Z,2.43
2022-10-01T16:31:50.998Z,4.73
2022-10-01T16:34:20.619Z,5.77
2022-10-01T16:36:48.516Z,3.33
2022-10-01T16:39:16.049Z,2.47
2022-10-01T16:42:01.328Z,5.17
2022-10-01T16:44:40.338Z,6.43
2022-10-01T16:47:08.176Z,3.97
2022-10-01T16:49:35.625Z,2.30
2022-10-01T16:52:03.284Z,2.60
2022-10-01T16:54:30.772Z,1.93
2022-10-01T16:56:59.305Z,2.23
2022-10-01T16:59:26.917Z,2.33
2022-10-01T17:01:57.407Z,3.00
2022-10-01T17:04:28.370Z,1.67
2022-10-01T17:06:59.028Z,2.80
2022-10-01T17:09:26.648Z,1.83
2022-10-01T17:11:54.273Z,2.13
2022-10-01T17:14:22.129Z,2.07
2022-10-01T17:16:50.664Z,4.50
2022-10-01T17:19:19.964Z,17.20
2022-10-01T17:21:47.626Z,14.27
2022-10-01T17:24:15.238Z,11.73
2022-10-01T17:26:45.275Z,18.73
2022-10-01T17:29:13.325Z,19.50
2022-10-01T17:31:44.694Z,9.57
2022-10-01T17:34:13.173Z,5.23
2022-10-01T17:36:42.005Z,3.57
2022-10-01T17:39:09.456Z,2.27
2022-10-01T17:41:36.935Z,2.60
2022-10-01T17:44:04.502Z,2.77
2022-10-01T17:46:32.208Z,2.77
2022-10-01T17:48:59.740Z,1.93
2022-10-01T17:51:27.185Z,2.07
2022-10-01T17:53:56.312Z,3.60
2022-10-01T17:56:23.786Z,3.90
2022-10-01T17:58:53.936Z,4.63
2022-10-01T18:01:22.924Z,3.17
2022-10-01T18:03:54.612Z,2.70
2022-10-01T18:06:22.238Z,2.07
2022-10-01T18:08:57.044Z,3.10
2022-10-01T18:11:27.403Z,4.70
2022-10-01T18:13:54.863Z,2.30
2022-10-01T18:16:23.402Z,2.53
2022-10-01T18:21:42.960Z,2.87
2022-10-01T18:24:10.665Z,2.60
2022-10-01T18:26:39.728Z,3.10
2022-10-01T18:29:07.314Z,2.50
2022-10-01T18:31:36.288Z,2.20
2022-10-01T18:34:12.104Z,2.60
2022-10-01T18:36:43.395Z,2.63
2022-10-01T18:39:21.990Z,3.00
2022-10-01T18:41:51.381Z,2.77
2022-10-01T18:44:21.265Z,1.87
2022-10-01T18:47:07.071Z,2.20
2022-10-01T18:49:59.071Z,2.63
2022-10-01T18:52:40.367Z,2.27
2022-10-01T18:55:30.245Z,3.30
2022-10-01T18:58:19.213Z,2.43
2022-10-01T19:00:57.521Z,2.17
2022-10-01T19:03:49.319Z,2.30
2022-10-01T19:06:29.938Z,2.70
2022-10-01T19:09:08.455Z,3.00
2022-10-01T19:11:46.392Z,3.67
2022-10-01T19:14:36.740Z,3.23
2022-10-01T19:17:17.255Z,1.97
2022-10-01T19:19:57.267Z,3.07
2022-10-01T19:22:33.120Z,4.90
2022-10-01T19:25:13.039Z,1.87
2022-10-01T19:27:52.866Z,1.53
2022-10-01T19:30:21.697Z,1.63
2022-10-01T19:32:56.276Z,2.87
2022-10-01T19:35:28.615Z,2.83
2022-10-01T19:37:58.935Z,2.00
2022-10-01T19:40:32.303Z,3.87
2022-10-01T19:43:09.079Z,3.37
2022-10-01T19:45:47.862Z,2.57
2022-10-01T19:48:20.811Z,2.93
2022-10-01T19:50:54.086Z,3.53
2022-10-01T19:53:26.997Z,2.40
2022-10-01T19:55:56.718Z,3.10
2022-10-01T19:58:24.438Z,2.53
2022-10-01T20:00:56.946Z,3.37
2022-10-01T20:03:35.356Z,3.87
2022-10-01T20:06:06.864Z,2.53
2022-10-01T20:08:38.696Z,5.03
2022-10-01T20:11:14.465Z,2.60
2022-10-01T20:13:59.021Z,2.90
2022-10-01T20:16:33.557Z,4.77
2022-10-01T20:19:11.009Z,2.40
2022-10-01T20:21:57.416Z,3.73
2022-10-01T20:24:37.737Z,3.37
2022-10-01T20:27:18.755Z,2.83
2022-10-01T20:29:53.949Z,3.37
2022-10-01T20:32:29.203Z,3.03
2022-10-01T20:35:08.187Z,3.60
2022-10-01T20:37:49.457Z,2.37
2022-10-01T20:40:24.968Z,4.47
2022-10-01T20:42:55.930Z,3.63
2022-10-01T20:45:27.653Z,2.03
2022-10-01T20:47:59.994Z,3.47
2022-10-01T20:50:32.273Z,2.97
2022-10-01T20:53:09.424Z,2.90
2022-10-01T20:55:41.709Z,2.10
2022-10-01T20:58:16.296Z,2.30
2022-10-01T21:00:45.812Z,2.67
2022-10-01T21:03:25.004Z,2.73
2022-10-01T21:05:55.766Z,3.40
2022-10-01T21:08:39.924Z,4.47
2022-10-01T21:11:14.340Z,2.93
2022-10-01T21:13:48.970Z,3.30
2022-10-01T21:16:32.161Z,4.23
2022-10-01T21:19:15.736Z,3.33
2022-10-01T21:21:55.197Z,4.40
2022-10-01T21:24:41.113Z,3.30
2022-10-01T21:27:25.947Z,3.60
2022-10-01T21:30:05.766Z,3.10
2022-10-01T21:32:52.010Z,3.07
2022-10-01T21:35:29.145Z,2.53
2022-10-01T21:38:05.658Z,4.47
2022-10-01T21:40:44.094Z,3.70
2022-10-01T21:43:23.962Z,4.13
2022-10-01T21:46:00.055Z,2.63
2022-10-01T21:48:40.105Z,2.43
2022-10-01T21:51:16.641Z,2.40
2022-10-01T21:53:59.049Z,2.97
2022-10-01T21:56:54.924Z,4.50
2022-10-01T21:59:45.114Z,3.17
2022-10-01T22:02:27.593Z,2.73
2022-10-01T22:05:02.260Z,5.23
2022-10-01T22:07:35.440Z,3.33
2022-10-01T22:10:11.137Z,4.17
2022-10-01T22:12:41.991Z,3.67
2022-10-01T22:15:20.489Z,3.83
2022-10-01T22:17:50.868Z,4.30
2022-10-01T22:20:21.003Z,4.43
2022-10-01T22:22:53.213Z,2.97
2022-10-01T22:25:20.710Z,3.60
2022-10-01T22:27:52.731Z,2.50
2022-10-01T22:30:21.652Z,3.77
2022-10-01T22:32:54.829Z,3.73
2022-10-01T22:35:27.223Z,4.53
2022-10-01T22:38:00.908Z,2.60
2022-10-01T22:40:31.095Z,2.97
2022-10-01T22:43:05.391Z,4.47
2022-10-01T22:45:44.507Z,4.53
2022-10-01T22:48:27.390Z,2.77
2022-10-01T22:51:08.688Z,4.40
2022-10-01T22:53:53.925Z,2.87
2022-10-01T22:56:28.591Z,2.90
2022-10-01T22:59:10.190Z,4.17
2022-10-01T23:01:47.352Z,2.73
2022-10-01T23:04:32.935Z,2.80
2022-10-01T23:07:17.478Z,3.63
2022-10-01T23:09:51.753Z,3.73
2022-10-01T23:12:28.179Z,2.63
2022-10-01T23:15:04.964Z,4.17
2022-10-01T23:17:40.670Z,4.37
2022-10-01T23:20:17.444Z,3.00
2022-10-01T23:23:00.849Z,4.60
2022-10-01T23:25:44.772Z,4.50
2022-10-01T23:28:23.304Z,4.57
2022-10-01T23:31:01.595Z,3.23
2022-10-01T23:33:50.472Z,3.17
2022-10-01T23:36:33.868Z,4.20
2022-10-01T23:39:29.162Z,4.33
2022-10-01T23:42:03.449Z,4.43
2022-10-01T23:44:37.916Z,3.77
2022-10-01T23:47:10.576Z,2.90
2022-10-01T23:49:43.226Z,4.50
2022-10-01T23:52:17.684Z,2.83
2022-10-01T23:54:49.223Z,4.73
2022-10-01T23:57:23.798Z,5.07
2022-10-01T23:59:59.913Z,2.73
